Time;durP1;ratioP1;P1;durP2;ratioP2;P2;SDS_P1;SDS_P2;PMS_P1;PMS_P2;Temp;Humidity;BMP_temperature;BMP_pressure;BME280_temperature;BME280_humidity;BME280_pressure;Samples;Min_cycle;Max_cycle;Signal;HPM_P1;HPM_P2
2023/05/01 00:01:35;;;;;;;1.73;1.63;;;12.50;99.90;;;;;;5016931;28;20505;-70
2023/05/01 00:04:00;;;;;;;2.10;1.70;;;12.50;99.90;;;;;;5016992;28;20180;-70
2023/05/01 00:06:26;;;;;;;2.90;1.90;;;12.60;99.90;;;;;;5017223;28;20194;-70
2023/05/01 00:08:52;;;;;;;2.70;2.17;;;12.60;99.90;;;;;;5016411;28;20192;-71
2023/05/01 00:11:17;;;;;;;1.97;1.87;;;12.60;99.90;;;;;;5016627;28;20474;-70
2023/05/01 00:13:43;;;;;;;3.40;1.97;;;12.50;99.90;;;;;;5016856;28;20227;-70
2023/05/01 00:16:09;;;;;;;2.23;1.57;;;12.50;99.90;;;;;;5015999;28;20188;-69
2023/05/01 00:18:35;;;;;;;1.87;1.53;;;12.50;99.90;;;;;;5015232;28;20633;-70
2023/05/01 00:21:01;;;;;;;2.00;1.60;;;12.50;99.90;;;;;;5015430;28;20461;-69
2023/05/01 00:23:27;;;;;;;1.70;1.60;;;12.60;99.90;;;;;;5015534;28;20169;-70
2023/05/01 00:25:52;;;;;;;1.63;1.50;;;12.50;99.90;;;;;;5014922;28;20426;-70
2023/05/01 00:28:18;;;;;;;1.73;1.63;;;12.50;99.90;;;;;;5015037;28;20263;-71
2023/05/01 00:30:47;;;;;;;2.20;2.00;;;12.50;99.90;;;;;;5015186;28;20164;-70
2023/05/01 00:33:12;;;;;;;2.53;1.90;;;12.50;99.90;;;;;;5015735;28;20164;-70
2023/05/01 00:35:38;;;;;;;3.50;1.90;;;12.50;99.90;;;;;;5015426;28;20485;-70
2023/05/01 00:38:04;;;;;;;1.67;1.57;;;12.50;99.90;;;;;;5015039;28;20168;-70
2023/05/01 00:40:30;;;;;;;2.40;2.20;;;12.50;99.90;;;;;;5015162;28;20168;-70
2023/05/01 00:42:55;;;;;;;2.60;2.40;;;12.50;99.90;;;;;;5015198;28;20839;-70
2023/05/01 00:45:21;;;;;;;2.13;1.93;;;12.60;99.90;;;;;;5015445;28;20192;-70
2023/05/01 00:47:47;;;;;;;2.57;2.27;;;12.60;99.90;;;;;;5015095;28;20196;-70
2023/05/01 00:50:12;;;;;;;3.20;1.80;;;12.60;99.90;;;;;;5015398;28;20199;-70
2023/05/01 00:52:38;;;;;;;2.40;2.17;;;12.60;99.90;;;;;;5014300;28;20173;-70
2023/05/01 00:55:04;;;;;;;2.70;2.10;;;12.60;99.90;;;;;;5014959;28;20179;-70
2023/05/01 00:57:31;;;;;;;2.70;2.33;;;12.70;99.90;;;;;;5030079;28;20172;-70
2023/05/01 00:59:57;;;;;;;2.60;2.20;;;12.70;99.90;;;;;;5015035;28;20411;-70
2023/05/01 01:02:23;;;;;;;2.33;1.97;;;12.70;99.90;;;;;;5014947;28;20526;-70
2023/05/01 01:04:49;;;;;;;3.00;2.47;;;12.70;99.90;;;;;;5014999;28;20194;-70
2023/05/01 01:07:43;;;;;;;4.10;2.33;;;12.70;99.90;;;;;;5014421;28;20438;-69
2023/05/01 01:10:14;;;;;;;2.97;2.60;;;12.70;99.90;;;;;;5014733;28;20975;-70
2023/05/01 01:13:03;;;;;;;2.97;1.90;;;12.70;99.90;;;;;;5015468;28;20426;-70
2023/05/01 01:15:37;;;;;;;2.63;2.10;;;12.70;99.90;;;;;;5015752;28;20419;-70
2023/05/01 01:18:27;;;;;;;2.37;2.00;;;12.70;99.90;;;;;;5015307;28;20394;-70
2023/05/01 01:21:04;;;;;;;2.63;2.03;;;12.60;99.90;;;;;;5015459;28;20506;-70
2023/05/01 01:23:42;;;;;;;3.40;2.50;;;12.60;99.90;;;;;;5015475;28;20414;-70
2023/05/01 01:26:18;;;;;;;6.23;2.73;;;12.60;99.90;;;;;;5030589;28;20423;-70
2023/05/01 01:29:09;;;;;;;2.63;1.77;;;12.60;99.90;;;;;;5015286;28;20457;-70
2023/05/01 01:32:07;;;;;;;2.20;2.00;;;12.60;99.90;;;;;;5015663;28;20407;-70
2023/05/01 01:34:35;;;;;;;2.50;2.30;;;12.60;99.90;;;;;;5013849;28;20553;-71
2023/05/01 01:37:29;;;;;;;1.93;1.73;;;12.60;99.90;;;;;;5013769;28;20461;-70
2023/05/01 01:40:02;;;;;;;3.07;2.50;;;12.50;99.90;;;;;;5014375;28;20404;-70
2023/05/01 01:42:39;;;;;;;3.07;2.33;;;12.50;99.90;;;;;;5015238;28;20445;-70
2023/05/01 01:45:14;;;;;;;3.23;2.80;;;12.50;99.90;;;;;;5014922;28;20407;-70
2023/05/01 01:47:42;;;;;;;2.20;2.00;;;12.50;99.90;;;;;;5014754;28;20411;-70
2023/05/01 01:50:09;;;;;;;1.90;1.80;;;12.50;99.90;;;;;;5013480;28;20455;-70
2023/05/01 01:52:37;;;;;;;2.37;2.17;;;12.50;99.90;;;;;;5015184;28;20977;-70
2023/05/01 01:55:07;;;;;;;2.90;2.60;;;12.60;99.90;;;;;;5014798;28;20416;-70
2023/05/01 01:57:36;;;;;;;3.23;1.93;;;12.60;99.90;;;;;;5014574;28;20820;-70
2023/05/01 02:00:07;;;;;;;4.17;2.90;;;12.60;99.90;;;;;;5014847;28;20400;-70
2023/05/01 02:02:34;;;;;;;2.40;2.20;;;12.60;99.90;;;;;;5014590;28;20431;-70
2023/05/01 02:05:01;;;;;;;2.43;2.23;;;12.70;99.90;;;;;;5013831;28;20411;-70
2023/05/01 02:07:28;;;;;;;2.90;2.40;;;12.70;99.90;;;;;;5013233;28;20411;-70
2023/05/01 02:09:55;;;;;;;2.33;2.13;;;12.70;99.90;;;;;;5013651;28;20494;-70
2023/05/01 02:12:25;;;;;;;3.03;2.60;;;12.70;99.90;;;;;;5013564;28;20432;-71
2023/05/01 02:14:52;;;;;;;3.00;2.37;;;12.70;99.90;;;;;;5013329;28;20403;-70
2023/05/01 02:17:19;;;;;;;2.40;2.20;;;12.70;99.90;;;;;;5013093;28;20412;-70
2023/05/01 02:19:45;;;;;;;2.97;2.50;;;12.70;99.90;;;;;;5013335;28;20413;-70
2023/05/01 02:22:12;;;;;;;4.00;3.10;;;12.70;99.90;;;;;;5013234;28;20498;-70
2023/05/01 02:24:41;;;;;;;3.07;1.90;;;12.70;99.90;;;;;;5013404;28;20458;-69
2023/05/01 02:27:11;;;;;;;2.50;2.30;;;12.70;99.90;;;;;;5012744;28;20461;-69
2023/05/01 02:29:37;;;;;;;2.20;1.80;;;12.70;99.90;;;;;;5013120;28;20879;-70
2023/05/01 02:32:02;;;;;;;3.27;2.40;;;12.70;99.90;;;;;;5013397;28;20503;-70
2023/05/01 02:34:28;;;;;;;2.37;2.17;;;12.70;99.90;;;;;;5014192;28;20168;-70
2023/05/01 02:36:53;;;;;;;6.00;3.37;;;12.70;99.90;;;;;;5028762;28;20223;-70
2023/05/01 02:39:19;;;;;;;2.53;2.30;;;12.70;99.90;;;;;;5014148;28;20172;-70
2023/05/01 02:41:47;;;;;;;2.50;2.27;;;12.70;99.90;;;;;;5013612;28;20180;-70
2023/05/01 02:44:14;;;;;;;3.77;2.30;;;12.70;99.90;;;;;;5013061;28;20836;-70
2023/05/01 02:46:43;;;;;;;3.00;2.00;;;12.70;99.90;;;;;;5013018;28;20430;-70
2023/05/01 02:49:11;;;;;;;6.00;3.03;;;12.60;99.90;;;;;;5012787;28;20450;-70
2023/05/01 02:51:37;;;;;;;5.27;2.30;;;12.60;99.90;;;;;;5012704;28;20407;-70
2023/05/01 02:54:03;;;;;;;5.53;2.57;;;12.60;99.90;;;;;;5012962;28;20468;-70
2023/05/01 02:56:29;;;;;;;3.00;2.10;;;12.50;99.90;;;;;;5012888;28;20807;-70
2023/05/01 02:58:55;;;;;;;6.93;3.40;;;12.50;99.90;;;;;;5012595;28;20416;-70
2023/05/01 03:01:21;;;;;;;2.90;2.47;;;12.50;99.90;;;;;;5012681;28;20867;-69
2023/05/01 03:03:47;;;;;;;7.53;2.87;;;12.50;99.90;;;;;;5012603;28;20238;-69
2023/05/01 03:06:13;;;;;;;3.30;2.37;;;12.50;99.90;;;;;;5011222;28;20258;-70
2023/05/01 03:08:39;;;;;;;2.83;2.50;;;12.50;99.90;;;;;;5012157;28;20255;-69
2023/05/01 03:11:08;;;;;;;2.47;2.10;;;12.50;99.90;;;;;;5012614;28;20557;-69
2023/05/01 03:13:34;;;;;;;3.93;2.37;;;12.40;99.90;;;;;;5012336;28;20502;-69
2023/05/01 03:16:00;;;;;;;3.43;3.00;;;12.40;99.90;;;;;;5011918;28;20431;-69
2023/05/01 03:18:26;;;;;;;3.10;2.80;;;12.40;99.90;;;;;;5012168;28;20512;-69
2023/05/01 03:20:58;;;;;;;2.43;2.23;;;12.30;99.90;;;;;;5012452;28;20952;-70
2023/05/01 03:23:24;;;;;;;2.70;2.50;;;12.30;99.90;;;;;;5012251;28;20168;-70
2023/05/01 03:25:50;;;;;;;4.97;2.80;;;12.20;99.90;;;;;;5012297;28;20431;-70
2023/05/01 03:28:16;;;;;;;2.70;2.17;;;12.10;99.90;;;;;;5010800;28;20415;-69
2023/05/01 03:30:42;;;;;;;2.70;2.33;;;12.10;99.90;;;;;;5012461;28;20457;-70
2023/05/01 03:33:08;;;;;;;3.77;2.67;;;12.10;99.90;;;;;;5013039;28;20407;-70
2023/05/01 03:35:34;;;;;;;2.60;2.40;;;12.10;99.90;;;;;;5012628;28;20928;-70
2023/05/01 03:38:00;;;;;;;4.57;2.80;;;12.10;99.90;;;;;;5012602;28;20164;-69
2023/05/01 03:40:25;;;;;;;5.10;3.13;;;12.00;99.90;;;;;;5012168;28;20443;-70
2023/05/01 03:42:50;;;;;;;2.37;2.17;;;12.00;99.90;;;;;;5012222;28;20589;-70
2023/05/01 03:45:16;;;;;;;2.83;2.40;;;11.90;99.90;;;;;;5012190;28;20196;-70
2023/05/01 03:47:42;;;;;;;3.07;2.77;;;11.90;99.90;;;;;;5027457;28;20180;-69
2023/05/01 03:50:08;;;;;;;4.40;2.73;;;11.80;99.90;;;;;;5012426;28;20249;-70
2023/05/01 03:52:33;;;;;;;2.90;2.60;;;11.80;99.90;;;;;;5012332;28;20184;-69
2023/05/01 03:54:59;;;;;;;3.53;2.70;;;11.70;99.90;;;;;;5012079;28;20845;-70
2023/05/01 03:57:26;;;;;;;2.70;2.37;;;11.60;99.90;;;;;;5011846;28;20199;-70
2023/05/01 03:59:52;;;;;;;2.37;2.17;;;11.60;99.90;;;;;;5027389;28;20527;-70
2023/05/01 04:02:17;;;;;;;4.20;2.67;;;11.50;99.90;;;;;;5012172;28;20518;-70
2023/05/01 04:04:43;;;;;;;2.30;2.10;;;11.50;99.90;;;;;;5012156;28;20535;-69
2023/05/01 04:07:09;;;;;;;2.93;2.50;;;11.40;99.90;;;;;;5011800;28;20188;-70
2023/05/01 04:09:34;;;;;;;2.70;2.50;;;11.40;99.90;;;;;;5012050;28;21080;-70
2023/05/01 04:12:01;;;;;;;3.63;2.50;;;11.40;99.90;;;;;;5011925;28;20176;-70
2023/05/01 04:14:26;;;;;;;3.37;2.93;;;11.40;99.90;;;;;;5012048;28;20260;-70
2023/05/01 04:16:52;;;;;;;3.57;3.00;;;11.30;99.90;;;;;;5026933;28;20852;-70
2023/05/01 04:19:17;;;;;;;3.50;2.80;;;11.30;99.90;;;;;;5012121;28;20219;-70
2023/05/01 04:21:43;;;;;;;4.27;3.00;;;11.30;99.90;;;;;;5027187;28;20175;-70
2023/05/01 04:24:09;;;;;;;2.67;2.40;;;11.30;99.90;;;;;;5011893;28;20180;-70
2023/05/01 04:26:34;;;;;;;3.67;2.63;;;11.30;99.90;;;;;;5012603;28;20184;-70
2023/05/01 04:29:00;;;;;;;3.43;3.13;;;11.30;99.90;;;;;;5015331;28;20710;-69
2023/05/01 04:31:25;;;;;;;3.00;2.77;;;11.30;99.90;;;;;;5015439;28;20641;-70
2023/05/01 04:33:51;;;;;;;4.57;3.57;;;11.30;99.90;;;;;;5015530;28;20203;-70
2023/05/01 04:36:17;;;;;;;2.40;2.20;;;11.30;99.90;;;;;;5015243;28;20180;-70
2023/05/01 04:38:43;;;;;;;2.70;2.50;;;11.40;99.90;;;;;;5015114;28;20258;-69
2023/05/01 04:41:08;;;;;;;4.23;3.27;;;11.40;99.90;;;;;;5015306;28;20168;-69
2023/05/01 04:43:34;;;;;;;3.30;3.10;;;11.30;99.90;;;;;;5015239;28;20172;-70
2023/05/01 04:45:59;;;;;;;3.37;3.00;;;11.30;99.90;;;;;;5015070;28;20226;-69
2023/05/01 04:48:25;;;;;;;2.77;2.57;;;11.30;99.90;;;;;;5014668;28;20176;-70
2023/05/01 04:50:50;;;;;;;2.80;2.60;;;11.40;99.90;;;;;;5015153;28;20187;-70
2023/05/01 04:53:16;;;;;;;7.93;2.50;;;11.50;99.90;;;;;;5015264;28;20689;-71
2023/05/01 04:55:42;;;;;;;2.50;2.30;;;11.60;99.90;;;;;;5030093;28;20194;-70
2023/05/01 04:58:07;;;;;;;2.77;2.57;;;11.60;99.90;;;;;;5014736;28;20164;-70
2023/05/01 05:00:33;;;;;;;5.00;3.10;;;11.70;99.90;;;;;;5015011;28;20172;-70
2023/05/01 05:02:58;;;;;;;3.87;2.63;;;11.70;99.90;;;;;;5015031;28;20168;-70
2023/05/01 05:05:24;;;;;;;4.10;3.47;;;11.80;99.90;;;;;;5014724;28;20266;-70
2023/05/01 05:07:49;;;;;;;3.07;2.87;;;11.80;99.90;;;;;;5029959;28;20180;-70
2023/05/01 05:10:15;;;;;;;4.43;3.40;;;11.80;99.90;;;;;;5014875;28;20192;-70
2023/05/01 05:12:40;;;;;;;3.93;2.67;;;11.90;99.90;;;;;;5014381;28;20183;-70
2023/05/01 05:15:07;;;;;;;4.50;2.80;;;12.00;99.90;;;;;;5014737;28;20650;-69
2023/05/01 05:17:32;;;;;;;7.33;3.10;;;12.10;99.90;;;;;;5029686;28;20168;-70
2023/05/01 05:19:57;;;;;;;6.33;3.13;;;12.20;99.90;;;;;;5013296;28;20418;-70
2023/05/01 05:22:24;;;;;;;3.07;2.77;;;12.20;99.90;;;;;;5029167;28;20184;-70
2023/05/01 05:25:02;;;;;;;4.13;3.37;;;12.30;99.90;;;;;;5014500;28;20214;-69
2023/05/01 05:27:28;;;;;;;3.10;2.80;;;12.30;99.90;;;;;;5014280;28;20411;-70
2023/05/01 05:29:53;;;;;;;5.30;4.10;;;12.40;99.90;;;;;;5014265;28;20477;-70
2023/05/01 05:32:19;;;;;;;3.13;2.93;;;12.40;99.90;;;;;;5029790;28;20180;-70
2023/05/01 05:34:44;;;;;;;4.13;3.07;;;12.40;99.90;;;;;;5014507;28;20171;-70
2023/05/01 05:37:10;;;;;;;3.57;3.27;;;12.40;99.90;;;;;;5013515;28;20949;-70
2023/05/01 05:39:36;;;;;;;3.70;3.37;;;12.40;99.90;;;;;;5029640;28;20176;-70
2023/05/01 05:42:02;;;;;;;4.07;3.30;;;12.30;99.90;;;;;;5014195;28;20169;-71
2023/05/01 05:44:28;;;;;;;4.97;3.07;;;12.50;99.90;;;;;;5014398;28;20211;-70
2023/05/01 05:46:53;;;;;;;3.50;3.20;;;12.60;99.90;;;;;;5013807;28;20437;-70
2023/05/01 05:49:19;;;;;;;5.43;3.77;;;12.70;99.90;;;;;;5014425;28;20235;-70
2023/05/01 05:51:45;;;;;;;3.40;3.10;;;12.80;99.90;;;;;;5029221;28;20168;-70
2023/05/01 05:54:10;;;;;;;4.43;4.07;;;12.90;99.90;;;;;;5014322;28;20247;-69
2023/05/01 05:56:36;;;;;;;4.63;3.73;;;13.00;99.90;;;;;;5014268;28;20195;-70
2023/05/01 05:59:03;;;;;;;3.93;3.30;;;13.00;99.90;;;;;;5029260;28;20539;-70
2023/05/01 06:01:28;;;;;;;6.20;3.30;;;13.10;99.90;;;;;;5014263;28;20169;-70
2023/05/01 06:03:54;;;;;;;4.70;4.20;;;13.10;99.90;;;;;;5014152;28;20870;-70
2023/05/01 06:06:20;;;;;;;4.40;3.50;;;13.20;99.90;;;;;;5014972;28;20220;-70
2023/05/01 06:08:45;;;;;;;4.70;3.97;;;13.30;99.90;;;;;;5014574;28;20290;-70
2023/05/01 06:11:11;;;;;;;4.60;2.87;;;13.40;99.90;;;;;;5015140;28;20196;-70
2023/05/01 06:13:37;;;;;;;4.50;4.10;;;13.50;99.90;;;;;;5015257;28;20242;-70
2023/05/01 06:16:02;;;;;;;3.20;2.90;;;13.60;99.90;;;;;;5030554;28;20681;-69
2023/05/01 06:18:29;;;;;;;3.80;3.10;;;13.80;99.90;;;;;;5014511;28;20171;-70
2023/05/01 06:20:55;;;;;;;4.03;3.17;;;13.90;99.90;;;;;;5014725;28;20156;-70
2023/05/01 06:23:20;;;;;;;3.50;3.03;;;14.10;99.90;;;;;;5014798;28;20443;-70
2023/05/01 06:25:47;;;;;;;3.33;3.03;;;14.30;99.90;;;;;;5014271;28;20427;-70
2023/05/01 06:28:13;;;;;;;3.20;2.90;;;14.40;99.90;;;;;;5014586;28;20192;-70
2023/05/01 06:30:39;;;;;;;3.73;3.43;;;14.60;99.90;;;;;;5012728;28;20494;-70
2023/05/01 06:33:04;;;;;;;4.30;3.20;;;14.80;99.90;;;;;;5014392;28;20190;-70
2023/05/01 06:35:30;;;;;;;3.00;2.80;;;15.00;99.90;;;;;;5014248;28;20283;-70
2023/05/01 06:37:56;;;;;;;3.60;3.30;;;15.20;99.90;;;;;;5013258;28;20210;-70
2023/05/01 06:40:21;;;;;;;4.67;3.37;;;15.30;99.90;;;;;;5014926;28;21035;-70
2023/05/01 06:42:47;;;;;;;3.07;2.87;;;15.80;99.90;;;;;;5014647;28;20650;-70
2023/05/01 06:45:12;;;;;;;3.30;3.00;;;16.10;99.90;;;;;;5030132;28;20197;-70
2023/05/01 06:47:38;;;;;;;3.63;3.30;;;16.40;99.90;;;;;;5014281;28;20251;-70
2023/05/01 06:50:04;;;;;;;4.83;3.60;;;16.70;99.90;;;;;;5014028;28;20640;-70
2023/05/01 06:52:30;;;;;;;2.90;2.63;;;16.90;99.90;;;;;;5014633;28;20199;-70
2023/05/01 06:54:55;;;;;;;3.87;2.50;;;17.20;99.90;;;;;;5014776;28;20399;-70
2023/05/01 06:57:21;;;;;;;3.07;2.80;;;17.30;99.90;;;;;;5014462;28;20218;-70
2023/05/01 06:59:46;;;;;;;2.70;2.50;;;17.20;99.90;;;;;;5014768;28;20160;-70
2023/05/01 07:02:12;;;;;;;3.10;2.80;;;17.20;99.90;;;;;;5014361;28;20247;-70
2023/05/01 07:04:38;;;;;;;3.03;2.73;;;17.30;99.90;;;;;;5014816;28;20175;-70
2023/05/01 07:07:03;;;;;;;5.23;3.67;;;17.20;99.90;;;;;;5014662;28;20768;-70
2023/05/01 07:09:29;;;;;;;3.57;2.80;;;17.10;99.90;;;;;;5030524;28;20570;-70
2023/05/01 07:11:55;;;;;;;3.07;2.77;;;17.30;99.90;;;;;;5013012;28;20211;-70
2023/05/01 07:14:22;;;;;;;4.07;2.17;;;17.20;99.90;;;;;;5013478;28;20173;-70
2023/05/01 07:16:47;;;;;;;4.27;2.63;;;17.30;99.90;;;;;;5014476;28;20769;-70
2023/05/01 07:19:13;;;;;;;3.93;2.87;;;17.10;99.90;;;;;;5014613;28;20413;-70
2023/05/01 07:21:40;;;;;;;3.07;2.87;;;17.00;99.90;;;;;;5014641;28;20179;-70
2023/05/01 07:24:05;;;;;;;2.50;2.30;;;17.10;99.90;;;;;;5013558;28;20668;-70
2023/05/01 07:26:31;;;;;;;2.70;2.50;;;17.10;99.90;;;;;;5014560;28;20427;-70
2023/05/01 07:28:57;;;;;;;3.67;2.17;;;17.00;99.90;;;;;;5014046;28;20283;-70
2023/05/01 07:31:22;;;;;;;3.60;2.67;;;17.00;99.90;;;;;;5014101;28;20251;-70
2023/05/01 07:33:48;;;;;;;2.73;2.37;;;17.00;99.90;;;;;;5029804;28;20172;-70
2023/05/01 07:36:13;;;;;;;2.90;2.60;;;17.00;99.90;;;;;;5014557;28;20188;-70
2023/05/01 07:38:39;;;;;;;3.20;2.77;;;17.10;99.90;;;;;;5029383;28;20422;-70
2023/05/01 07:41:05;;;;;;;2.63;2.30;;;17.20;99.90;;;;;;5014762;28;20200;-70
2023/05/01 07:43:30;;;;;;;3.30;2.90;;;17.20;99.90;;;;;;5014651;28;20691;-70
2023/05/01 07:46:00;;;;;;;2.83;2.33;;;17.30;99.90;;;;;;5014260;28;20688;-70
2023/05/01 07:48:27;;;;;;;3.77;2.43;;;17.50;99.90;;;;;;5012812;28;20172;-70
2023/05/01 07:50:54;;;;;;;2.63;2.43;;;17.60;99.90;;;;;;5013009;28;20455;-70
2023/05/01 07:53:21;;;;;;;2.27;2.13;;;17.80;99.90;;;;;;5014390;28;20489;-70
2023/05/01 07:55:47;;;;;;;3.40;2.97;;;18.00;99.90;;;;;;5014641;28;20777;-70
2023/05/01 07:58:13;;;;;;;4.13;2.30;;;18.30;99.90;;;;;;5013956;28;20423;-70
2023/05/01 08:00:38;;;;;;;3.87;2.60;;;18.20;99.90;;;;;;5015109;28;20411;-70
2023/05/01 08:03:04;;;;;;;4.27;3.23;;;18.50;99.90;;;;;;5017267;28;20630;-70
2023/05/01 08:05:30;;;;;;;3.00;2.70;;;18.90;99.90;;;;;;5017366;28;20272;-70
2023/05/01 08:07:56;;;;;;;2.70;2.47;;;19.20;99.90;;;;;;5032256;28;20182;-70
2023/05/01 08:10:22;;;;;;;5.10;2.23;;;19.70;99.90;;;;;;5032332;28;20459;-70
2023/05/01 08:12:47;;;;;;;2.30;2.10;;;20.20;99.80;;;;;;5016318;28;20548;-70
2023/05/01 08:15:13;;;;;;;2.70;2.10;;;21.00;95.10;;;;;;5016165;28;20327;-70
2023/05/01 08:17:38;;;;;;;2.67;2.00;;;21.10;91.50;;;;;;5016064;28;20218;-70
2023/05/01 08:20:04;;;;;;;2.63;2.37;;;21.20;86.00;;;;;;5016586;28;20191;-71
2023/05/01 08:22:30;;;;;;;2.50;2.30;;;21.20;83.60;;;;;;5016313;28;20206;-70
2023/05/01 08:24:56;;;;;;;3.20;2.90;;;21.00;81.90;;;;;;5015654;28;20480;-70
2023/05/01 08:27:21;;;;;;;2.30;2.07;;;20.80;81.00;;;;;;5015508;28;20407;-70
2023/05/01 08:29:47;;;;;;;4.93;2.70;;;20.70;82.20;;;;;;5015391;28;20704;-71
2023/05/01 08:32:13;;;;;;;4.17;2.73;;;20.50;82.90;;;;;;5015616;28;20251;-71
2023/05/01 08:34:39;;;;;;;1.93;1.83;;;20.50;81.20;;;;;;5015615;28;20169;-71
2023/05/01 08:37:05;;;;;;;2.50;2.30;;;20.30;82.00;;;;;;5015100;28;20967;-71
2023/05/01 08:39:30;;;;;;;3.27;2.60;;;20.40;83.30;;;;;;5015325;28;20168;-71
2023/05/01 08:41:57;;;;;;;2.63;2.40;;;20.40;80.60;;;;;;5015252;28;20178;-71
2023/05/01 08:44:25;;;;;;;2.37;2.17;;;20.40;81.60;;;;;;5015150;28;20171;-71
2023/05/01 08:47:06;;;;;;;3.13;2.57;;;20.30;81.90;;;;;;5014889;28;20469;-71
2023/05/01 08:49:36;;;;;;;2.80;2.47;;;20.50;84.60;;;;;;5015091;28;20872;-71
2023/05/01 08:52:04;;;;;;;6.03;2.63;;;20.60;81.50;;;;;;5030306;28;20936;-71
2023/05/01 08:54:31;;;;;;;3.10;2.10;;;20.60;80.90;;;;;;5015048;28;20478;-73
2023/05/01 08:57:04;;;;;;;2.33;2.03;;;20.90;80.40;;;;;;5013557;28;20506;-71
2023/05/01 08:59:32;;;;;;;3.60;2.20;;;20.90;77.70;;;;;;5014915;28;20783;-71
2023/05/01 09:02:03;;;;;;;2.17;1.97;;;21.00;74.60;;;;;;5013618;28;20470;-71
2023/05/01 09:04:36;;;;;;;2.33;2.13;;;21.30;78.30;;;;;;5014757;28;20411;-71
2023/05/01 09:07:03;;;;;;;2.60;2.40;;;21.80;74.60;;;;;;5014457;28;20481;-71
2023/05/01 09:09:29;;;;;;;2.33;2.13;;;22.20;70.30;;;;;;5014812;28;20451;-71
2023/05/01 09:12:00;;;;;;;3.17;2.03;;;22.70;69.90;;;;;;5014073;28;20967;-70
2023/05/01 09:14:25;;;;;;;3.27;2.27;;;23.20;68.80;;;;;;5014673;28;20400;-70
2023/05/01 09:16:51;;;;;;;3.67;2.43;;;23.80;65.80;;;;;;5014302;28;20431;-70
2023/05/01 09:19:18;;;;;;;2.70;2.40;;;24.20;62.50;;;;;;5029551;28;20260;-68
2023/05/01 09:21:43;;;;;;;2.97;2.67;;;25.10;63.70;;;;;;5014225;28;20195;-70
2023/05/01 09:24:09;;;;;;;4.33;3.37;;;26.00;61.20;;;;;;5014396;28;20408;-68
2023/05/01 09:26:40;;;;;;;3.20;2.63;;;26.80;58.20;;;;;;5014166;28;20250;-70
2023/05/01 09:29:06;;;;;;;2.30;2.10;;;28.10;54.50;;;;;;5013909;28;20219;-70
2023/05/01 09:31:31;;;;;;;2.40;2.10;;;29.50;51.70;;;;;;5014232;28;20470;-69
2023/05/01 09:33:59;;;;;;;7.07;2.83;;;30.60;50.20;;;;;;5014283;28;20215;-69
2023/05/01 09:36:30;;;;;;;3.93;2.43;;;31.50;46.50;;;;;;5014124;28;20185;-70
2023/05/01 09:38:56;;;;;;;2.50;2.30;;;33.40;44.90;;;;;;5013770;28;20424;-70
2023/05/01 09:41:23;;;;;;;2.70;2.50;;;35.30;41.60;;;;;;5014038;28;20487;-70
2023/05/01 09:43:57;;;;;;;2.43;2.00;;;36.20;36.20;;;;;;5013877;28;20487;-70
2023/05/01 09:46:24;;;;;;;2.80;2.60;;;36.80;35.10;;;;;;5013942;28;20939;-70
2023/05/01 09:48:54;;;;;;;2.50;2.30;;;38.00;32.50;;;;;;5013627;28;20769;-71
2023/05/01 09:51:22;;;;;;;2.87;2.40;;;39.10;31.40;;;;;;5013709;28;20403;-70
2023/05/01 09:53:48;;;;;;;2.40;2.27;;;39.30;29.40;;;;;;5013646;28;20893;-70
2023/05/01 09:56:14;;;;;;;2.87;2.50;;;39.50;29.50;;;;;;5013606;28;20453;-71
2023/05/01 09:58:39;;;;;;;3.53;3.27;;;40.10;29.30;;;;;;5013409;28;20427;-71
2023/05/01 10:01:05;;;;;;;3.80;3.50;;;40.30;29.20;;;;;;5013677;28;20183;-70
2023/05/01 10:03:33;;;;;;;3.03;2.83;;;40.30;28.70;;;;;;5013579;28;20169;-71
2023/05/01 10:06:01;;;;;;;2.80;2.60;;;39.50;28.10;;;;;;5013371;28;20184;-70
2023/05/01 10:08:46;;;;;;;2.30;2.20;;;39.70;28.00;;;;;;5013252;28;20405;-69
2023/05/01 10:11:12;;;;;;;3.20;2.90;;;39.70;27.30;;;;;;5013396;28;20389;-70
2023/05/01 10:13:37;;;;;;;2.80;2.60;;;39.10;26.10;;;;;;5013291;28;20855;-69
2023/05/01 10:16:06;;;;;;;3.20;2.73;;;39.20;27.20;;;;;;5013250;28;20199;-70
2023/05/01 10:18:34;;;;;;;3.10;2.80;;;39.80;27.30;;;;;;5013025;28;20164;-69
2023/05/01 10:21:00;;;;;;;2.73;2.53;;;40.00;26.50;;;;;;5013208;28;20896;-70
2023/05/01 10:23:25;;;;;;;2.60;2.40;;;39.90;26.10;;;;;;5013230;28;20407;-70
2023/05/01 10:25:55;;;;;;;2.70;2.50;;;39.70;27.00;;;;;;5013088;28;20657;-69
2023/05/01 10:28:23;;;;;;;4.03;2.93;;;40.50;26.80;;;;;;5012838;28;20161;-69
2023/05/01 10:30:50;;;;;;;3.23;2.20;;;41.20;26.00;;;;;;5012996;28;21092;-69
2023/05/01 10:33:16;;;;;;;2.20;2.10;;;42.00;26.50;;;;;;5013077;28;20399;-69
2023/05/01 10:35:46;;;;;;;2.30;2.13;;;42.30;26.20;;;;;;5012717;28;20398;-70
2023/05/01 10:38:20;;;;;;;4.83;2.20;;;42.50;26.10;;;;;;5012724;28;20378;-71
2023/05/01 10:40:48;;;;;;;2.30;2.20;;;42.50;25.90;;;;;;5013168;28;20392;-70
2023/05/01 10:43:24;;;;;;;2.93;2.40;;;41.80;25.50;;;;;;5012894;28;20389;-71
2023/05/01 10:45:51;;;;;;;2.17;2.07;;;41.30;26.00;;;;;;5012816;28;20501;-70
2023/05/01 10:48:38;;;;;;;2.37;2.17;;;40.70;25.60;;;;;;5012526;28;20388;-69
2023/05/01 10:51:23;;;;;;;2.00;1.80;;;40.90;26.30;;;;;;5012763;28;20382;-70
2023/05/01 10:54:11;;;;;;;2.43;2.23;;;41.40;26.40;;;;;;5012716;28;20373;-69
2023/05/01 10:56:37;;;;;;;2.50;2.30;;;42.00;26.50;;;;;;5012509;28;20423;-70
2023/05/01 10:59:06;;;;;;;2.87;2.67;;;42.10;26.20;;;;;;5012419;28;20795;-69
2023/05/01 11:01:33;;;;;;;2.53;2.27;;;41.60;26.00;;;;;;5012624;28;20196;-69
2023/05/01 11:04:02;;;;;;;2.67;2.47;;;40.70;25.80;;;;;;5012514;28;20738;-70
2023/05/01 11:06:27;;;;;;;2.40;2.23;;;40.00;26.10;;;;;;5012256;28;20390;-70
2023/05/01 11:08:53;;;;;;;2.50;2.30;;;39.10;26.30;;;;;;5012068;28;20374;-69
2023/05/01 11:11:19;;;;;;;2.20;2.10;;;38.20;26.70;;;;;;5012337;28;20200;-70
2023/05/01 11:14:04;;;;;;;2.50;2.30;;;37.20;27.20;;;;;;5012381;28;20247;-71
2023/05/01 11:16:36;;;;;;;2.30;2.10;;;36.30;28.00;;;;;;5012350;28;20422;-71
2023/05/01 11:19:02;;;;;;;2.30;2.10;;;35.60;28.60;;;;;;5012069;28;20410;-70
2023/05/01 11:21:29;;;;;;;5.43;2.47;;;35.00;28.90;;;;;;5012323;28;20482;-70
2023/05/01 11:23:55;;;;;;;2.60;2.37;;;34.50;29.20;;;;;;5012278;28;20812;-69
2023/05/01 11:26:22;;;;;;;2.70;2.50;;;34.10;29.90;;;;;;5012235;28;20418;-69
2023/05/01 11:28:49;;;;;;;3.20;2.90;;;33.60;30.00;;;;;;5011855;28;20182;-69
2023/05/01 11:31:18;;;;;;;2.50;2.30;;;33.20;30.50;;;;;;5012149;28;20399;-69
2023/05/01 11:33:44;;;;;;;3.30;2.50;;;32.70;31.00;;;;;;5012056;28;20435;-69
2023/05/01 11:36:09;;;;;;;3.40;2.73;;;32.40;31.80;;;;;;5016027;28;20831;-70
2023/05/01 11:38:35;;;;;;;3.30;2.70;;;32.10;32.60;;;;;;5018346;28;20183;-70
2023/05/01 11:41:03;;;;;;;4.87;2.97;;;31.80;33.00;;;;;;5018623;28;20504;-70
2023/05/01 11:43:29;;;;;;;2.47;2.37;;;31.40;33.20;;;;;;5034012;28;20242;-71
2023/05/01 11:46:00;;;;;;;3.37;3.07;;;31.10;33.60;;;;;;5018603;28;20427;-71
2023/05/01 11:48:27;;;;;;;3.80;2.80;;;30.80;33.30;;;;;;5018580;28;20411;-70
2023/05/01 11:50:52;;;;;;;4.40;2.40;;;30.60;33.80;;;;;;5018687;28;20951;-70
2023/05/01 11:53:18;;;;;;;3.40;3.10;;;30.70;34.50;;;;;;5018559;28;20447;-69
2023/05/01 11:55:44;;;;;;;3.73;3.00;;;30.80;34.60;;;;;;5018401;28;20184;-69
2023/05/01 11:58:10;;;;;;;2.10;1.90;;;31.00;33.50;;;;;;5018297;28;20175;-69
2023/05/01 12:00:38;;;;;;;3.13;2.33;;;31.70;34.10;;;;;;5018650;28;20410;-69
2023/05/01 12:03:10;;;;;;;3.93;1.87;;;32.80;33.60;;;;;;5018430;28;20816;-70
2023/05/01 12:05:39;;;;;;;2.30;2.03;;;33.60;32.60;;;;;;5018178;28;20421;-70
2023/05/01 12:08:22;;;;;;;2.60;2.37;;;34.10;31.20;;;;;;5018230;28;20849;-70
2023/05/01 12:10:55;;;;;;;2.50;2.30;;;34.50;31.30;;;;;;5018375;28;20538;-69
2023/05/01 12:13:20;;;;;;;3.13;1.97;;;34.90;30.90;;;;;;5033518;28;20478;-70
2023/05/01 12:15:49;;;;;;;2.20;2.00;;;36.50;31.40;;;;;;5018349;28;20447;-70
2023/05/01 12:18:16;;;;;;;2.47;1.70;;;39.30;29.30;;;;;;5018033;28;20168;-70
2023/05/01 12:20:43;;;;;;;2.83;1.90;;;41.00;27.40;;;;;;5018296;28;20453;-70
2023/05/01 12:23:11;;;;;;;2.40;2.20;;;43.10;26.70;;;;;;5018247;28;20441;-71
2023/05/01 12:25:38;;;;;;;2.30;2.10;;;44.10;24.90;;;;;;5018204;28;20423;-70
2023/05/01 12:28:10;;;;;;;2.70;2.40;;;45.20;23.50;;;;;;5018000;28;20772;-71
2023/05/01 12:30:36;;;;;;;1.50;1.40;;;45.50;21.80;;;;;;5018190;28;20437;-70
2023/05/01 12:33:12;;;;;;;1.90;1.80;;;46.00;22.00;;;;;;5018254;28;20763;-70
2023/05/01 12:35:38;;;;;;;2.53;2.33;;;47.00;22.10;;;;;;5017834;28;20430;-70
2023/05/01 12:38:12;;;;;;;2.20;2.10;;;48.00;22.40;;;;;;5017810;28;20386;-71
2023/05/01 12:40:40;;;;;;;2.33;2.13;;;49.20;22.10;;;;;;5018070;28;20409;-71
2023/05/01 12:43:06;;;;;;;2.40;2.20;;;49.50;21.80;;;;;;5018102;28;20406;-70
2023/05/01 12:45:38;;;;;;;2.50;2.27;;;47.70;20.40;;;;;;5018061;28;20406;-70
2023/05/01 12:48:13;;;;;;;3.37;2.30;;;45.30;20.90;;;;;;5014204;28;20370;-69
2023/05/01 12:50:39;;;;;;;1.53;1.43;;;43.10;21.50;;;;;;5014957;28;20386;-69